Time;durP1;ratioP1;P1;durP2;ratioP2;P2;SDS_P1;SDS_P2;PMS_P1;PMS_P2;Temp;Humidity;BMP_temperature;BMP_pressure;BME280_temperature;BME280_humidity;BME280_pressure;Samples;Min_cycle;Max_cycle;Signal;HPM_P1;HPM_P2
2024/03/22 00:02:17;;;;;;;25.52;17.00;;;;;;;10.63;100.00;101099.25;5123772;27;20066;-71
2024/03/22 00:04:43;;;;;;;24.60;16.85;;;;;;;10.59;100.00;101092.31;5102119;27;20055;-70
2024/03/22 00:07:09;;;;;;;26.15;16.60;;;;;;;10.51;100.00;101076.72;5123812;27;20063;-71
2024/03/22 00:09:36;;;;;;;24.73;16.50;;;;;;;10.58;100.00;101087.94;5096910;27;20166;-70
2024/03/22 00:12:04;;;;;;;25.23;16.42;;;;;;;10.59;100.00;101086.16;5119922;27;20497;-71
2024/03/22 00:14:33;;;;;;;21.65;15.70;;;;;;;10.58;100.00;101087.06;5105201;27;20122;-70
2024/03/22 00:17:00;;;;;;;24.63;16.52;;;;;;;10.52;100.00;101074.94;5126657;27;20047;-71
2024/03/22 00:19:27;;;;;;;24.50;16.38;;;;;;;10.39;100.00;101052.47;5090622;28;20055;-71
2024/03/22 00:21:53;;;;;;;26.40;17.73;;;;;;;10.49;100.00;101052.06;5105649;28;20343;-71
2024/03/22 00:24:19;;;;;;;25.83;17.27;;;;;;;10.63;100.00;101071.88;5122315;27;20061;-72
2024/03/22 00:26:45;;;;;;;27.70;17.10;;;;;;;10.60;100.00;101069.34;5121773;28;20460;-70
2024/03/22 00:29:15;;;;;;;25.30;17.80;;;;;;;10.52;100.00;101067.00;5106268;28;20039;-71
2024/03/22 00:31:42;;;;;;;25.67;17.45;;;;;;;10.40;100.00;101059.47;5123310;28;20154;-71
2024/03/22 00:34:10;;;;;;;25.90;17.50;;;;;;;10.27;100.00;101056.41;5119499;28;20070;-73
2024/03/22 00:36:36;;;;;;;27.40;17.92;;;;;;;10.26;100.00;101064.38;5124279;28;20067;-72
2024/03/22 00:39:03;;;;;;;29.20;17.58;;;;;;;10.23;100.00;101062.69;5106630;27;20125;-72
2024/03/22 00:41:29;;;;;;;27.88;17.77;;;;;;;10.21;100.00;101045.19;5107983;28;20472;-71
2024/03/22 00:43:56;;;;;;;26.25;17.58;;;;;;;10.27;100.00;101066.13;5121772;28;20090;-71
2024/03/22 00:46:22;;;;;;;25.77;17.35;;;;;;;10.20;100.00;101049.59;5104935;28;20035;-70
2024/03/22 00:48:50;;;;;;;27.65;18.38;;;;;;;10.24;100.00;101061.78;5121955;27;20122;-74
2024/03/22 00:51:20;;;;;;;25.23;17.25;;;;;;;10.19;100.00;101048.75;5121242;28;20523;-70
2024/03/22 00:53:47;;;;;;;25.25;17.25;;;;;;;10.14;100.00;101040.06;5122475;28;20043;-71
2024/03/22 00:56:13;;;;;;;23.98;17.17;;;;;;;10.16;100.00;101045.28;5110206;28;20096;-72
2024/03/22 00:58:40;;;;;;;30.27;17.98;;;;;;;10.16;100.00;101040.88;5082110;28;20051;-70
2024/03/22 01:01:05;;;;;;;27.38;18.52;;;;;;;10.17;100.00;101032.00;5121047;27;20093;-70
2024/03/22 01:03:33;;;;;;;29.48;19.15;;;;;;;9.95;100.00;101006.34;5106015;28;20587;-70
2024/03/22 01:06:00;;;;;;;26.20;17.63;;;;;;;9.81;100.00;100989.16;5123767;27;20069;-71
2024/03/22 01:08:29;;;;;;;28.67;19.33;;;;;;;9.93;100.00;101019.63;5119760;27;20043;-70
2024/03/22 01:10:54;;;;;;;29.35;18.85;;;;;;;9.96;100.00;101029.22;5104732;27;20096;-72
2024/03/22 01:13:21;;;;;;;27.17;18.52;;;;;;;9.92;100.00;101025.81;5124811;28;20355;-73
2024/03/22 01:15:47;;;;;;;26.58;18.25;;;;;;;9.80;100.00;101013.03;5118924;27;20075;-73
2024/03/22 01:18:14;;;;;;;27.52;18.67;;;;;;;9.86;100.00;101020.75;5108147;28;20053;-72
2024/03/22 01:20:39;;;;;;;29.10;18.98;;;;;;;9.80;100.00;101016.53;5075273;27;20475;-72
2024/03/22 01:23:06;;;;;;;32.55;18.92;;;;;;;9.70;100.00;101011.63;5098323;27;20043;-72
2024/03/22 01:25:33;;;;;;;31.55;19.50;;;;;;;9.70;100.00;101017.75;5109517;27;20604;-71
2024/03/22 01:28:00;;;;;;;29.85;18.95;;;;;;;9.72;100.00;101021.22;5092643;27;20035;-70
2024/03/22 01:30:28;;;;;;;30.05;18.85;;;;;;;9.73;100.00;101017.66;5097623;27;20091;-73
2024/03/22 01:32:55;;;;;;;28.05;18.92;;;;;;;9.74;100.00;101022.03;5093283;27;20075;-72
2024/03/22 01:35:21;;;;;;;26.83;19.17;;;;;;;9.76;100.00;101009.59;5111092;27;20900;-72
2024/03/22 01:37:48;;;;;;;29.20;18.98;;;;;;;9.71;100.00;101010.69;5111095;27;20043;-71
2024/03/22 01:40:14;;;;;;;28.75;19.15;;;;;;;9.60;100.00;101005.75;5090934;27;20047;-73
2024/03/22 01:42:43;;;;;;;30.33;19.48;;;;;;;9.58;100.00;101012.88;5109850;27;20096;-71
2024/03/22 01:45:11;;;;;;;28.70;18.90;;;;;;;9.52;100.00;101018.38;5079599;27;20054;-71
2024/03/22 01:47:38;;;;;;;29.75;19.75;;;;;;;9.45;100.00;101015.03;5114583;27;20063;-71
2024/03/22 01:50:06;;;;;;;28.23;18.23;;;;;;;9.42;100.00;101011.66;5111568;27;20614;-73
2024/03/22 01:52:34;;;;;;;31.33;18.30;;;;;;;9.45;100.00;101001.81;5096657;27;20227;-71
2024/03/22 01:54:59;;;;;;;26.42;17.67;;;;;;;9.50;100.00;100997.25;5109870;27;20112;-70
2024/03/22 01:57:27;;;;;;;28.65;18.80;;;;;;;9.54;100.00;100995.41;5113482;27;20130;-70
2024/03/22 01:59:56;;;;;;;29.08;18.33;;;;;;;9.58;100.00;100993.53;5115554;27;20043;-71
2024/03/22 02:02:25;;;;;;;24.80;17.02;;;;;;;9.59;100.00;100987.31;5116001;27;20122;-72
2024/03/22 02:04:51;;;;;;;27.38;18.30;;;;;;;9.58;100.00;100990.88;5103419;27;20163;-71
2024/03/22 02:07:19;;;;;;;28.02;17.80;;;;;;;9.52;100.00;100996.34;5112627;27;20039;-71
2024/03/22 02:09:45;;;;;;;28.17;17.45;;;;;;;9.49;100.00;100992.88;5117549;27;20552;-71
2024/03/22 02:12:12;;;;;;;28.00;17.92;;;;;;;9.39;100.00;100978.25;5111017;27;20046;-71
2024/03/22 02:14:38;;;;;;;27.38;17.42;;;;;;;9.08;100.00;100929.97;5106038;27;20867;-71
2024/03/22 02:17:07;;;;;;;29.17;18.73;;;;;;;9.39;100.00;100975.63;5107325;27;20054;-72
2024/03/22 02:19:33;;;;;;;27.83;17.60;;;;;;;9.36;100.00;100967.78;5124702;27;20130;-70
2024/03/22 02:22:00;;;;;;;29.15;17.58;;;;;;;9.31;100.00;100969.69;5114466;27;20054;-73
2024/03/22 02:24:27;;;;;;;27.25;17.73;;;;;;;9.26;100.00;100965.50;5124394;27;20130;-72
2024/03/22 02:26:54;;;;;;;28.13;18.35;;;;;;;9.19;100.00;100958.66;5109454;27;20094;-70
2024/03/22 02:29:20;;;;;;;29.42;18.15;;;;;;;9.13;100.00;100947.38;5124535;27;20517;-72
2024/03/22 02:31:48;;;;;;;28.45;18.23;;;;;;;9.28;100.00;100953.09;5127412;27;20035;-70
2024/03/22 02:34:15;;;;;;;29.45;18.40;;;;;;;9.28;100.00;100951.31;5108339;27;20134;-72
2024/03/22 02:36:42;;;;;;;30.55;18.83;;;;;;;9.35;100.00;100950.19;5100760;27;20047;-73
2024/03/22 02:39:09;;;;;;;28.42;17.75;;;;;;;9.39;100.00;100941.25;5117637;27;20089;-72
2024/03/22 02:41:37;;;;;;;28.20;18.67;;;;;;;9.36;100.00;100946.63;5109874;27;20059;-71
2024/03/22 02:44:03;;;;;;;30.45;19.25;;;;;;;9.29;100.00;100947.75;5127454;27;20070;-74
2024/03/22 02:46:31;;;;;;;32.75;19.45;;;;;;;9.25;100.00;100946.13;5105056;27;20065;-71
2024/03/22 02:48:58;;;;;;;29.98;18.08;;;;;;;9.11;100.00;100936.03;5086829;27;20118;-71
2024/03/22 02:51:25;;;;;;;28.67;19.65;;;;;;;9.12;100.00;100950.09;5122239;27;20127;-76
2024/03/22 02:53:51;;;;;;;30.23;19.08;;;;;;;9.11;100.00;100953.66;5111899;27;20046;-70
2024/03/22 02:56:21;;;;;;;29.42;19.45;;;;;;;9.06;100.00;100958.19;5119772;27;20078;-71
2024/03/22 02:58:51;;;;;;;30.85;19.58;;;;;;;9.03;100.00;100950.38;5125207;27;20047;-72
2024/03/22 03:01:18;;;;;;;28.25;18.67;;;;;;;8.97;100.00;100948.78;5117510;27;20058;-71
2024/03/22 03:03:44;;;;;;;29.45;19.25;;;;;;;8.92;100.00;100942.78;5108988;27;20482;-73
2024/03/22 03:06:13;;;;;;;29.65;19.25;;;;;;;8.91;100.00;100946.34;5124138;27;20520;-70
2024/03/22 03:08:40;;;;;;;34.22;19.90;;;;;;;8.95;100.00;100934.78;5108933;27;20091;-71
2024/03/22 03:11:07;;;;;;;30.50;18.60;;;;;;;9.04;100.00;100938.88;5124058;27;20529;-71
2024/03/22 03:13:32;;;;;;;30.00;19.08;;;;;;;8.83;100.00;100889.38;5129208;27;20058;-73
2024/03/22 03:16:00;;;;;;;30.10;18.92;;;;;;;9.07;100.00;100930.88;5120229;27;20046;-71
2024/03/22 03:18:26;;;;;;;29.77;17.70;;;;;;;9.05;100.00;100927.41;5122499;27;20504;-72
2024/03/22 03:20:53;;;;;;;30.25;19.55;;;;;;;9.08;100.00;100927.31;5105560;27;20036;-70
2024/03/22 03:23:19;;;;;;;29.85;19.20;;;;;;;9.09;100.00;100934.34;5128389;27;20096;-73
2024/03/22 03:25:46;;;;;;;29.95;18.88;;;;;;;9.10;100.00;100925.50;5117946;27;20047;-71
2024/03/22 03:28:13;;;;;;;31.95;18.90;;;;;;;9.15;100.00;100923.53;5109668;27;20074;-71
2024/03/22 03:30:40;;;;;;;31.13;19.42;;;;;;;9.14;100.00;100922.69;5112947;27;20082;-72
2024/03/22 03:33:07;;;;;;;29.50;19.30;;;;;;;9.15;100.00;100920.91;5100586;27;20568;-71
2024/03/22 03:35:34;;;;;;;33.13;19.30;;;;;;;9.18;100.00;100915.53;5103480;27;20437;-72
2024/03/22 03:38:00;;;;;;;31.65;18.83;;;;;;;9.19;100.00;100911.97;5091975;27;20169;-70
2024/03/22 03:40:27;;;;;;;28.23;17.85;;;;;;;9.23;100.00;100910.97;5122847;27;20077;-71
2024/03/22 03:42:53;;;;;;;30.65;18.88;;;;;;;9.09;100.00;100892.94;5123312;27;20063;-70
2024/03/22 03:45:20;;;;;;;31.30;19.13;;;;;;;8.94;100.00;100861.72;5117348;27;20039;-72
2024/03/22 03:47:46;;;;;;;30.15;18.85;;;;;;;9.20;100.00;100905.78;5110147;27;20066;-70
2024/03/22 03:50:14;;;;;;;32.10;19.95;;;;;;;9.19;100.00;100908.47;5128506;27;20054;-71
2024/03/22 03:52:40;;;;;;;29.10;19.33;;;;;;;9.21;100.00;100904.00;5127795;27;20065;-70
2024/03/22 03:55:08;;;;;;;29.73;18.90;;;;;;;9.19;100.00;100913.75;5124654;27;20074;-71
2024/03/22 03:57:34;;;;;;;29.05;18.55;;;;;;;9.19;100.00;100908.47;5119445;27;20117;-70
2024/03/22 04:00:00;;;;;;;32.50;17.95;;;;;;;9.17;100.00;100899.72;5126892;27;20763;-71
2024/03/22 04:02:26;;;;;;;29.92;18.20;;;;;;;9.15;100.00;100892.69;5124159;27;20051;-72
2024/03/22 04:04:53;;;;;;;30.48;18.52;;;;;;;9.12;100.00;100898.13;5122934;27;20043;-71
2024/03/22 04:07:21;;;;;;;32.22;19.63;;;;;;;9.16;100.00;100896.22;5120066;27;20059;-71
2024/03/22 04:09:49;;;;;;;33.30;19.48;;;;;;;9.17;100.00;100887.38;5108179;27;20046;-71
2024/03/22 04:12:15;;;;;;;29.80;18.92;;;;;;;9.16;100.00;100885.66;5119178;27;20240;-72
2024/03/22 04:14:42;;;;;;;32.22;18.83;;;;;;;9.08;100.00;100869.19;5123156;27;20066;-71
2024/03/22 04:17:08;;;;;;;31.83;18.92;;;;;;;9.15;100.00;100882.13;5102413;27;20138;-72
2024/03/22 04:19:34;;;;;;;29.60;19.08;;;;;;;9.12;100.00;100887.56;5126773;27;20069;-70
2024/03/22 04:22:02;;;;;;;28.88;18.83;;;;;;;9.09;100.00;100878.84;5121381;27;20067;-72
2024/03/22 04:24:30;;;;;;;30.75;19.17;;;;;;;9.06;100.00;100877.16;5114169;27;20057;-71
2024/03/22 04:26:57;;;;;;;30.05;18.67;;;;;;;9.07;100.00;100875.41;5104974;27;20121;-71
2024/03/22 04:29:24;;;;;;;31.27;18.30;;;;;;;9.04;100.00;100878.13;5093628;28;20059;-72
2024/03/22 04:31:50;;;;;;;31.83;19.50;;;;;;;8.96;100.00;100877.53;5125358;28;20064;-74
2024/03/22 04:34:16;;;;;;;30.88;18.77;;;;;;;8.83;100.00;100862.97;5123734;28;20446;-73
2024/03/22 04:36:43;;;;;;;34.35;19.40;;;;;;;8.86;100.00;100876.09;5115264;28;20085;-72
2024/03/22 04:39:12;;;;;;;30.50;18.50;;;;;;;8.80;100.00;100879.81;5115076;27;20079;-72
2024/03/22 04:41:40;;;;;;;29.98;18.95;;;;;;;8.78;100.00;100879.00;5127120;28;20062;-71
2024/03/22 04:44:06;;;;;;;30.42;18.08;;;;;;;8.79;100.00;100878.94;5122326;28;20628;-71
2024/03/22 04:46:32;;;;;;;30.55;18.40;;;;;;;8.77;100.00;100877.25;5120512;28;20039;-71
2024/03/22 04:48:59;;;;;;;30.30;19.30;;;;;;;8.81;100.00;100881.53;5110568;27;20070;-72
2024/03/22 04:51:27;;;;;;;30.45;18.58;;;;;;;8.79;100.00;100881.59;5104472;28;20130;-70
2024/03/22 04:53:53;;;;;;;31.67;19.02;;;;;;;8.81;100.00;100878.91;5123258;28;20070;-70
2024/03/22 04:56:20;;;;;;;29.70;18.35;;;;;;;8.78;100.00;100865.78;5125232;27;20126;-71
2024/03/22 04:58:47;;;;;;;28.50;17.55;;;;;;;8.86;100.00;100884.88;5128758;27;20082;-73
2024/03/22 05:01:14;;;;;;;29.10;18.02;;;;;;;8.88;100.00;100882.19;5127551;27;20152;-70
2024/03/22 05:03:41;;;;;;;27.33;16.92;;;;;;;8.87;100.00;100886.59;5126870;27;20072;-72
2024/03/22 05:06:07;;;;;;;27.88;16.90;;;;;;;8.74;100.00;100857.09;5123137;27;20085;-71
2024/03/22 05:08:33;;;;;;;25.38;16.30;;;;;;;8.94;100.00;100872.31;5129014;27;20065;-72
2024/03/22 05:11:01;;;;;;;29.98;18.05;;;;;;;8.98;100.00;100870.41;5128907;27;20078;-72
2024/03/22 05:13:27;;;;;;;27.05;16.35;;;;;;;8.95;100.00;100857.31;5093378;27;20081;-71
2024/03/22 05:15:55;;;;;;;25.52;16.48;;;;;;;9.06;100.00;100871.88;5105522;27;20070;-71
2024/03/22 05:18:21;;;;;;;26.42;16.88;;;;;;;9.10;100.00;100880.59;5124975;27;20066;-70
2024/03/22 05:20:48;;;;;;;25.65;16.63;;;;;;;9.01;100.00;100863.25;5125668;27;20036;-70
2024/03/22 05:23:16;;;;;;;25.77;16.95;;;;;;;8.77;100.00;100820.03;5129940;27;20118;-70
2024/03/22 05:25:43;;;;;;;25.75;16.85;;;;;;;9.10;100.00;100884.09;5094376;27;20119;-71
2024/03/22 05:28:09;;;;;;;28.15;17.55;;;;;;;9.05;100.00;100869.28;5112460;27;20116;-70
2024/03/22 05:30:36;;;;;;;28.45;17.35;;;;;;;9.13;100.00;100883.09;5125959;27;20070;-71
2024/03/22 05:33:06;;;;;;;28.65;17.98;;;;;;;9.10;100.00;100885.88;5108710;27;20096;-71
2024/03/22 05:35:34;;;;;;;30.70;19.05;;;;;;;9.03;100.00;100879.91;5125702;27;20047;-70
2024/03/22 05:38:00;;;;;;;29.13;18.08;;;;;;;8.99;100.00;100878.28;5106680;27;20067;-73
2024/03/22 05:40:27;;;;;;;27.00;16.65;;;;;;;9.01;100.00;100879.09;5108747;27;20594;-78
2024/03/22 05:42:52;;;;;;;26.27;16.50;;;;;;;9.02;100.00;100869.38;5128595;27;20043;-71
2024/03/22 05:45:19;;;;;;;26.95;17.15;;;;;;;9.05;100.00;100869.28;5146870;27;20039;-76
2024/03/22 05:47:46;;;;;;;28.77;17.50;;;;;;;8.95;100.00;100858.19;5125337;27;20067;-72
2024/03/22 05:50:15;;;;;;;149.98;37.60;;;;;;;9.09;100.00;100878.84;5109868;27;20390;-73
2024/03/22 05:52:40;;;;;;;28.80;17.55;;;;;;;9.00;100.00;100864.16;5126699;27;20058;-71
2024/03/22 05:55:08;;;;;;;26.38;17.85;;;;;;;8.96;100.00;100843.19;5112406;27;20043;-76
2024/03/22 05:57:34;;;;;;;28.42;18.10;;;;;;;9.17;100.00;100868.00;5126420;27;20081;-70
2024/03/22 06:00:01;;;;;;;27.40;17.15;;;;;;;9.05;100.00;100838.47;5121039;27;20067;-72
2024/03/22 06:02:30;;;;;;;31.00;18.88;;;;;;;9.20;100.00;100852.94;5130401;27;20071;-74
2024/03/22 06:04:58;;;;;;;30.55;18.23;;;;;;;9.20;100.00;100846.78;5125838;27;20516;-74
2024/03/22 06:07:25;;;;;;;31.10;18.55;;;;;;;9.21;100.00;100853.78;5107664;27;20092;-70
2024/03/22 06:09:54;;;;;;;27.25;17.98;;;;;;;9.15;100.00;100850.44;5122724;27;20055;-71
2024/03/22 06:12:21;;;;;;;27.63;17.70;;;;;;;9.11;100.00;100843.53;5128086;27;20067;-71
2024/03/22 06:14:50;;;;;;;31.30;18.85;;;;;;;9.05;100.00;100840.22;5101303;27;20045;-72
2024/03/22 06:17:16;;;;;;;29.08;18.20;;;;;;;9.04;100.00;100844.66;5091171;27;20085;-72
2024/03/22 06:19:46;;;;;;;33.67;18.85;;;;;;;9.07;100.00;100839.28;5077024;28;20071;-71
2024/03/22 06:22:12;;;;;;;33.38;18.88;;;;;;;8.99;100.00;100814.88;5077643;27;20075;-73
2024/03/22 06:24:40;;;;;;;29.02;18.27;;;;;;;9.19;100.00;100835.34;5076461;28;20067;-71
2024/03/22 06:27:07;;;;;;;28.20;17.30;;;;;;;9.26;100.00;100838.66;5087834;28;20072;-73
2024/03/22 06:29:35;;;;;;;31.27;18.45;;;;;;;9.32;100.00;100838.41;5070846;28;20040;-71
2024/03/22 06:32:00;;;;;;;28.35;17.88;;;;;;;9.36;100.00;100835.63;5091946;27;20031;-71
2024/03/22 06:34:28;;;;;;;30.35;17.38;;;;;;;9.38;100.00;100835.56;5094323;28;20689;-70
2024/03/22 06:36:53;;;;;;;27.40;17.63;;;;;;;9.38;100.00;100835.56;5086603;27;20052;-71
2024/03/22 06:39:23;;;;;;;28.85;17.55;;;;;;;9.36;100.00;100826.84;5088062;28;20088;-71
2024/03/22 06:41:50;;;;;;;30.77;17.95;;;;;;;9.35;100.00;100833.03;5060656;27;20068;-70
2024/03/22 06:44:18;;;;;;;27.67;17.27;;;;;;;9.35;100.00;100835.69;5091739;28;20141;-72
2024/03/22 06:46:46;;;;;;;31.25;18.30;;;;;;;9.38;100.00;100836.44;5070559;28;20039;-70
2024/03/22 06:49:13;;;;;;;26.40;16.95;;;;;;;9.40;100.00;100828.47;5082945;28;20079;-71
2024/03/22 06:51:38;;;;;;;28.23;16.60;;;;;;;9.46;100.00;100829.09;5074602;28;20043;-71
2024/03/22 06:54:05;;;;;;;28.27;17.83;;;;;;;9.60;100.00;100827.75;5088470;28;20097;-72
2024/03/22 06:56:31;;;;;;;28.10;16.85;;;;;;;9.62;100.00;100823.25;5082788;28;20044;-70
2024/03/22 06:59:00;;;;;;;30.20;17.73;;;;;;;9.52;100.00;100811.28;5076931;28;20044;-72
2024/03/22 07:01:26;;;;;;;25.95;16.52;;;;;;;9.58;100.00;100819.00;5071962;28;20604;-71
2024/03/22 07:03:52;;;;;;;27.17;16.38;;;;;;;9.55;100.00;100821.75;5089606;28;20039;-71
2024/03/22 07:06:20;;;;;;;30.50;17.05;;;;;;;9.56;100.00;100813.78;5090468;28;20593;-71
2024/03/22 07:08:47;;;;;;;31.40;18.70;;;;;;;9.50;100.00;100809.56;5087998;28;20078;-72
2024/03/22 07:11:13;;;;;;;28.48;17.67;;;;;;;9.49;100.00;100813.13;5054323;27;20131;-70
2024/03/22 07:13:40;;;;;;;25.90;17.20;;;;;;;9.54;100.00;100809.47;5087063;28;20539;-70
2024/03/22 07:16:07;;;;;;;27.98;17.15;;;;;;;9.53;100.00;100805.09;5091355;27;20947;-72
2024/03/22 07:18:36;;;;;;;29.13;17.17;;;;;;;9.62;100.00;100815.31;5122937;27;20043;-71
2024/03/22 07:21:03;;;;;;;25.88;16.92;;;;;;;9.64;100.00;100798.47;5125158;27;20067;-73
2024/03/22 07:23:30;;;;;;;28.20;16.65;;;;;;;9.66;100.00;100795.78;5124778;27;20108;-72
2024/03/22 07:25:56;;;;;;;29.25;16.60;;;;;;;9.74;100.00;100799.88;5122266;27;20126;-71
2024/03/22 07:28:23;;;;;;;23.83;16.67;;;;;;;9.82;100.00;100789.88;5119225;27;20051;-71
2024/03/22 07:30:48;;;;;;;25.25;15.85;;;;;;;9.91;100.00;100795.75;5125297;27;20497;-70
2024/03/22 07:33:17;;;;;;;24.65;15.65;;;;;;;9.95;100.00;100795.56;5124023;27;20066;-70
2024/03/22 07:35:43;;;;;;;26.52;16.00;;;;;;;10.02;100.00;100786.47;5110441;27;20043;-70
2024/03/22 07:38:10;;;;;;;24.08;15.35;;;;;;;10.05;100.00;100791.66;5118504;27;20050;-71
2024/03/22 07:40:36;;;;;;;26.17;16.65;;;;;;;10.10;100.00;100789.66;5125294;27;20067;-72
2024/03/22 07:43:06;;;;;;;26.77;15.32;;;;;;;10.21;100.00;100788.44;5119775;27;20082;-73
2024/03/22 07:45:34;;;;;;;26.42;15.35;;;;;;;10.16;100.00;100762.97;5106768;27;20420;-72
2024/03/22 07:48:01;;;;;;;24.58;15.25;;;;;;;10.41;100.00;100788.50;5071113;27;20372;-71
2024/03/22 07:50:28;;;;;;;24.90;15.32;;;;;;;10.45;100.00;100790.09;5114759;27;20149;-72
2024/03/22 07:52:55;;;;;;;25.15;15.88;;;;;;;10.43;100.00;100789.31;5089673;27;20141;-70
2024/03/22 07:55:22;;;;;;;24.88;15.32;;;;;;;10.46;100.00;100792.69;5122268;27;20142;-71
2024/03/22 07:57:49;;;;;;;24.38;14.52;;;;;;;10.48;100.00;100792.63;5118870;27;20051;-70
2024/03/22 08:00:15;;;;;;;22.40;14.60;;;;;;;10.46;100.00;100784.75;5109437;27;20573;-70
2024/03/22 08:02:42;;;;;;;25.83;14.82;;;;;;;10.34;100.00;100760.56;5125783;27;20078;-71
2024/03/22 08:05:08;;;;;;;22.88;14.55;;;;;;;10.55;100.00;100786.16;5126774;27;20762;-69
2024/03/22 08:07:38;;;;;;;28.63;14.65;;;;;;;10.61;100.00;100777.09;5120166;27;20039;-70
2024/03/22 08:10:05;;;;;;;20.88;13.82;;;;;;;10.80;100.00;100764.84;5126416;27;20051;-71
2024/03/22 08:12:32;;;;;;;21.33;13.60;;;;;;;10.89;100.00;100764.44;5108798;27;20067;-73
2024/03/22 08:14:58;;;;;;;20.10;13.75;;;;;;;10.99;100.00;100764.94;5105604;27;20683;-71
2024/03/22 08:17:25;;;;;;;22.45;13.70;;;;;;;11.06;100.00;100761.94;5102313;28;20055;-71
2024/03/22 08:19:51;;;;;;;21.65;13.60;;;;;;;11.19;100.00;100757.81;5124427;27;20031;-73
2024/03/22 08:22:17;;;;;;;22.50;13.88;;;;;;;11.31;100.00;100752.91;5107560;28;20549;-71
2024/03/22 08:24:44;;;;;;;23.27;14.25;;;;;;;11.36;100.00;100751.78;5120194;27;20039;-69
2024/03/22 08:27:11;;;;;;;20.45;13.40;;;;;;;11.47;100.00;100752.16;5102218;28;20366;-72
2024/03/22 08:29:37;;;;;;;22.88;13.02;;;;;;;11.56;100.00;100748.22;5090745;27;20122;-71
2024/03/22 08:32:04;;;;;;;21.00;12.80;;;;;;;11.63;100.00;100756.78;5119967;28;20521;-70
2024/03/22 08:34:32;;;;;;;20.73;13.18;;;;;;;11.67;100.00;100745.06;5123762;27;20130;-70
2024/03/22 08:36:59;;;;;;;18.75;12.93;;;;;;;11.68;100.00;100723.78;5113909;27;20035;-73
2024/03/22 08:39:27;;;;;;;19.13;12.57;;;;;;;11.72;100.00;100737.78;5122234;28;20138;-71
2024/03/22 08:41:55;;;;;;;21.50;13.65;;;;;;;11.62;100.00;100739.16;5106321;28;20039;-69
2024/03/22 08:44:21;;;;;;;20.30;13.38;;;;;;;11.65;100.00;100733.69;5123216;28;20131;-69
2024/03/22 08:46:49;;;;;;;20.17;13.38;;;;;;;11.82;100.00;100733.78;5100798;27;20070;-77
2024/03/22 08:49:15;;;;;;;22.42;13.70;;;;;;;11.93;100.00;100726.22;5118988;28;20036;-70
2024/03/22 08:51:42;;;;;;;20.58;13.60;;;;;;;11.96;100.00;100730.50;5124663;28;20058;-71
2024/03/22 08:54:08;;;;;;;22.02;13.73;;;;;;;11.98;100.00;100720.66;5123519;27;20108;-69
2024/03/22 08:56:36;;;;;;;19.88;13.10;;;;;;;12.00;100.00;100714.34;5108040;28;20089;-71
2024/03/22 08:59:04;;;;;;;21.23;13.38;;;;;;;12.21;100.00;100717.78;5121142;27;20078;-71
2024/03/22 09:01:32;;;;;;;18.65;12.57;;;;;;;12.27;100.00;100706.88;5123893;28;20544;-70
2024/03/22 09:03:58;;;;;;;20.65;13.05;;;;;;;12.43;100.00;100722.91;5122641;27;20043;-71
2024/03/22 09:06:27;;;;;;;22.38;13.43;;;;;;;12.45;100.00;100707.72;5101541;28;20042;-72
2024/03/22 09:08:55;;;;;;;19.02;12.40;;;;;;;12.51;100.00;100704.78;5112313;27;20117;-72
2024/03/22 09:11:23;;;;;;;19.13;11.85;;;;;;;12.72;100.00;100700.19;5100956;28;20039;-72
2024/03/22 09:13:51;;;;;;;20.25;11.98;;;;;;;12.88;100.00;100687.84;5120587;28;20181;-70
2024/03/22 09:16:20;;;;;;;17.70;11.32;;;;;;;13.14;100.00;100692.63;5127476;27;20059;-71
2024/03/22 09:18:46;;;;;;;17.65;11.48;;;;;;;13.35;100.00;100685.38;5119956;28;20047;-70
2024/03/22 09:21:13;;;;;;;17.88;11.93;;;;;;;13.10;100.00;100669.81;5124286;27;20043;-71
2024/03/22 09:23:38;;;;;;;20.42;11.68;;;;;;;13.17;100.00;100683.69;5123998;27;20071;-70
2024/03/22 09:26:06;;;;;;;23.10;12.82;;;;;;;12.94;100.00;100682.19;5123979;27;20062;-71
2024/03/22 09:28:33;;;;;;;16.83;11.38;;;;;;;12.85;100.00;100686.19;5102999;28;20061;-71
2024/03/22 09:31:05;;;;;;;21.45;11.52;;;;;;;12.70;100.00;100672.84;5107751;27;20059;-70
2024/03/22 09:33:32;;;;;;;16.58;11.27;;;;;;;12.81;100.00;100681.97;5106118;27;20059;-71
2024/03/22 09:36:01;;;;;;;18.08;11.95;;;;;;;12.93;100.00;100676.00;5102858;28;20058;-72
2024/03/22 09:38:26;;;;;;;18.65;11.25;;;;;;;13.15;100.00;100674.94;5117755;27;20122;-72
2024/03/22 09:40:54;;;;;;;27.20;11.40;;;;;;;13.41;100.00;100671.72;5120758;27;20448;-70
2024/03/22 09:43:21;;;;;;;22.77;11.25;;;;;;;13.50;100.00;100657.94;5107685;27;20058;-71
2024/03/22 09:45:48;;;;;;;18.15;11.57;;;;;;;13.59;100.00;100661.88;5126398;27;20516;-71
2024/03/22 09:48:14;;;;;;;18.10;10.98;;;;;;;13.55;100.00;100668.28;5085676;27;20138;-70
2024/03/22 09:50:42;;;;;;;17.58;10.80;;;;;;;13.57;100.00;100653.97;5083191;27;20074;-70
2024/03/22 09:53:10;;;;;;;15.10;10.27;;;;;;;13.57;100.00;100635.34;5110427;27;20745;-73
2024/03/22 09:55:39;;;;;;;15.60;10.25;;;;;;;13.90;100.00;100648.56;5128343;27;20037;-71
2024/03/22 09:58:05;;;;;;;13.25;10.30;;;;;;;14.08;100.00;100641.34;5123426;27;20167;-70
2024/03/22 10:00:32;;;;;;;13.98;10.18;;;;;;;14.12;100.00;100615.41;5109985;27;20520;-70
2024/03/22 10:02:58;;;;;;;16.75;10.93;;;;;;;14.30;100.00;100638.31;5126678;27;20079;-71
2024/03/22 10:05:26;;;;;;;15.10;9.93;;;;;;;14.33;100.00;100638.94;5112345;27;20512;-70
2024/03/22 10:07:54;;;;;;;15.50;9.70;;;;;;;14.47;100.00;100616.03;5118840;27;20075;-71
2024/03/22 10:10:21;;;;;;;18.95;9.93;;;;;;;14.76;100.00;100619.59;5126975;27;20480;-70
2024/03/22 10:12:48;;;;;;;12.88;9.55;;;;;;;15.00;100.00;100631.41;5108663;27;20050;-71
2024/03/22 10:15:15;;;;;;;15.98;9.20;;;;;;;15.16;100.00;100620.66;5122076;27;20047;-71
2024/03/22 10:17:41;;;;;;;10.07;8.43;;;;;;;15.28;97.51;100606.56;5120082;27;20066;-70
2024/03/22 10:20:13;;;;;;;12.63;8.77;;;;;;;15.45;98.06;100611.69;5127483;27;20058;-70
2024/03/22 10:22:41;;;;;;;12.48;8.23;;;;;;;15.38;96.17;100562.34;5112715;27;20050;-72
2024/03/22 10:25:10;;;;;;;13.07;8.88;;;;;;;15.24;93.16;100549.03;5127058;27;20062;-70
2024/03/22 10:27:38;;;;;;;18.63;10.50;;;;;;;15.44;93.06;100599.28;5102273;27;20043;-70
2024/03/22 10:30:09;;;;;;;13.93;8.73;;;;;;;15.44;96.85;100588.63;5109644;27;20066;-70
2024/03/22 10:32:36;;;;;;;13.85;8.60;;;;;;;15.36;93.89;100593.59;5103842;27;20398;-72
2024/03/22 10:35:05;;;;;;;15.18;9.02;;;;;;;15.21;94.92;100584.75;5089541;27;20472;-71
2024/03/22 10:37:32;;;;;;;15.77;8.82;;;;;;;14.79;98.85;100566.09;5121640;27;20062;-75
2024/03/22 10:40:02;;;;;;;10.55;8.07;;;;;;;14.86;100.00;100581.63;5126390;27;20084;-71
2024/03/22 10:42:29;;;;;;;12.48;8.52;;;;;;;14.95;98.71;100583.69;5111795;27;20043;-70
2024/03/22 10:44:57;;;;;;;11.60;8.15;;;;;;;15.07;97.28;100564.28;5125165;27;20039;-72
2024/03/22 10:47:30;;;;;;;11.18;7.25;;;;;;;15.28;95.80;100559.38;5125763;27;20054;-77
2024/03/22 10:50:05;;;;;;;12.70;8.00;;;;;;;15.56;94.18;100563.00;5124811;27;20089;-70
2024/03/22 10:52:34;;;;;;;11.00;7.78;;;;;;;15.79;90.31;100555.19;5124713;27;20528;-74
2024/03/22 10:55:04;;;;;;;13.05;8.15;;;;;;;15.94;90.34;100547.13;5120634;27;20063;-71
2024/03/22 10:57:36;;;;;;;13.23;7.68;;;;;;;16.06;86.40;100549.81;5128154;27;20070;-70
2024/03/22 11:00:09;;;;;;;12.80;7.40;;;;;;;15.97;88.17;100522.88;5111342;27;20043;-70
2024/03/22 11:02:36;;;;;;;9.15;6.95;;;;;;;16.27;88.75;100538.63;5102807;27;20055;-71
2024/03/22 11:05:03;;;;;;;10.52;7.88;;;;;;;16.36;85.71;100536.22;5111799;27;20059;-71
2024/03/22 11:07:30;;;;;;;12.98;7.25;;;;;;;16.44;84.90;100533.00;5101202;27;20046;-71